»·PEaware :: N21955 KSNA-KBUR

N21955 :: KSNA-KBUR

FLIGHT INFORMATION

Flight Status: Arrived
Operator: Privately registered:
United States
More flights under this callsign
Pilot: Anonymous 24989 (24989)
Aircraft: BEECH AIRCRAFT BARON
(BE58)
More flights by this aircraft type
Origin: KSNA John Wayne-Orange Co
United States
Destination: KBUR Bob Hope-Burbank
United States
More flights between these airports :: More routes between these airports
Route: +SLI V23 POPPR SMO 125R SMO 311R SILEX
File this flight plan on PilotEdge
Remarks: TEC
Altitude:
(Current/Filed)
4,000ft
Speed:
(Current/Filed)
150kts
Departed: 10-Sep-19 10:32 PM
Arrived: 10-Sep-19 11:07 PM
Distance/Time
Traveled:
40nm/0:34
Distance/Time
To Go:
Arrived

Flight Plot

Page will automatically refresh every two minutes.

Flight plan parsing failed; only flown route is shown


Map Options




Map Legend


Flown Route
Filed Route
Departure Airport
Arrival Airport
Navaid (VOR, NDB)
Fix

Horizontal Profiles

Position Reports

Time Latitude Longitude Heading Altitude Ground
Speed
10-Sep-19 22:16 33.674112 -117.865569 117 60ft 0kts
10-Sep-19 22:17 33.674112 -117.865569 117 60ft 0kts
10-Sep-19 22:18 33.674112 -117.865569 117 60ft 0kts
10-Sep-19 22:19 33.674112 -117.865569 117 60ft 0kts
10-Sep-19 22:20 33.674112 -117.865569 117 60ft 0kts
10-Sep-19 22:21 33.674112 -117.865569 117 60ft 0kts
10-Sep-19 22:22 33.674112 -117.865569 117 60ft 0kts
10-Sep-19 22:23 33.674112 -117.865569 117 60ft 0kts
10-Sep-19 22:24 33.674112 -117.865569 117 60ft 0kts
10-Sep-19 22:25 33.674112 -117.865569 117 60ft 0kts
10-Sep-19 22:26 33.674112 -117.865569 117 60ft 0kts
10-Sep-19 22:27 33.674112 -117.865569 117 60ft 0kts
10-Sep-19 22:28 33.674082 -117.865485 104 60ft 4kts
10-Sep-19 22:29 33.675114 -117.866437 27 60ft 30kts
10-Sep-19 22:30 33.679918 -117.863570 320 60ft 0kts
10-Sep-19 22:31 33.664309 -117.875276 219 805ft 102kts
10-Sep-19 22:32 33.638281 -117.900927 220 2049ft 156kts
10-Sep-19 22:33 33.612924 -117.926322 223 3697ft 97kts
10-Sep-19 22:34 33.583649 -117.949692 206 4229ft 101kts
10-Sep-19 22:35 33.565361 -117.967982 239 3636ft 92kts
10-Sep-19 22:36 33.546955 -117.990976 222 4269ft 94kts
10-Sep-19 22:37 33.526658 -118.015005 227 4398ft 103kts
10-Sep-19 22:38 33.508453 -118.049236 271 3744ft 132kts
10-Sep-19 22:39 33.518232 -118.089740 333 3314ft 128kts
10-Sep-19 22:40 33.548091 -118.106830 334 3298ft 104kts
10-Sep-19 22:41 33.575118 -118.123030 332 3373ft 95kts
10-Sep-19 22:42 33.603208 -118.140314 332 4027ft 139kts
10-Sep-19 22:43 33.645646 -118.166379 332 4009ft 173kts
10-Sep-19 22:44 33.691389 -118.194624 332 4007ft 177kts
10-Sep-19 22:45 33.737457 -118.223116 332 4007ft 177kts
10-Sep-19 22:46 33.783477 -118.251611 332 4007ft 177kts
10-Sep-19 22:47 33.829375 -118.280073 332 4007ft 177kts
10-Sep-19 22:48 33.870956 -118.316691 320 4007ft 177kts
10-Sep-19 22:49 33.910872 -118.356760 320 4007ft 177kts
10-Sep-19 22:50 33.950561 -118.396651 320 4007ft 179kts
10-Sep-19 22:51 33.990940 -118.437282 320 4007ft 181kts
10-Sep-19 22:52 34.033340 -118.475430 326 4007ft 181kts
10-Sep-19 22:53 34.077983 -118.511604 326 4008ft 188kts
10-Sep-19 22:54 34.124788 -118.546023 346 3856ft 199kts
10-Sep-19 22:55 34.177880 -118.536224 24 3064ft 164kts
10-Sep-19 22:56 34.216480 -118.506845 39 3065ft 152kts
10-Sep-19 22:57 34.222075 -118.462541 146 3077ft 149kts
10-Sep-19 22:58 34.187153 -118.482364 240 3073ft 160kts
10-Sep-19 22:59 34.180899 -118.540068 284 3069ft 174kts
10-Sep-19 23:00 34.187579 -118.601545 276 3066ft 175kts
10-Sep-19 23:01 34.218573 -118.602976 94 3087ft 173kts
10-Sep-19 23:02 34.198049 -118.548294 91 3161ft 172kts
10-Sep-19 23:03 34.199080 -118.491406 100 2411ft 136kts
10-Sep-19 23:04 34.198944 -118.444440 94 2008ft 136kts
10-Sep-19 23:05 34.198426 -118.395627 95 1269ft 136kts
10-Sep-19 23:06 34.197666 -118.362901 95 720ft 0kts

Navigation Log

Ident Type
Flight plan parsing failed, navigation log unavailable